Airfield :
LOGIN :

Register | Disclaimer

   EN    FR    IT 

 










Legend :    VFR   Marginal VFR   IFR   Intensive IFR   Very Intensive IFR
Visi :
Ceiling :
>= 8 km
>= 3000ft
5 to 8 km
1000 to 3000 ft
1500m to 5 km
500 to 1000 ft
800 to 1500m
200 to 500 ft
< 800m
< 200 ft
Symbols :   Thunderstorms  Fog  Heavy snow  Heavy precipitations  Wind > 20 kt
SIGMETs :     Misc.  Thunderstorms  Icing  Turbulence  Mountain Waves  Volcanic Ashes






- Airport Elevation : 1197 ft
- IATA code : SPM


ETAD - Spangdahlem Ab

CURRENT METAR :
  • 231141Z AUTO 31004KT 9999 BKN010 OVC050 10/06 A3036 RMK AO2 CIG 010V050 BKN V SCT SLP279 TSNO $

EXPIRED METARs :
  • 231056Z AUTO 00000KT 9999 SCT007 OVC049 09/06 A3036 RMK AO2 SLP279 T00910064 TSNO $
  • 231041Z AUTO 00000KT 9999 SCT006 OVC049 09/06 A3036 RMK AO2 SLP279 TSNO $
  • 230956Z AUTO 21003KT 9999 FEW005 OVC050 08/07 A3035 RMK AO2 SLP275 T00810066 TSNO $
  • 230935Z AUTO 00000KT 9999 FEW005 OVC050 08/07 A3036 RMK AO2 SLP281 TSNO $
  • 230926Z AUTO 00000KT 9999 OVC050 08/07 A3036 RMK AO2 SLP281 TSNO $
  • 230856Z AUTO 00000KT 9999 OVC049 07/06 A3035 RMK AO2 SLP277 T00700064 52020 TSNO $

TAF AMD TAF ETAD
Valid from the 23 at 09:00 until the 24 at 12:00 UTC


230915Z 2309/2412 22004KT 9999 BKN050 QNH3030INS
BECMG 2315/2316 VRB04KT 9999 FEW020 QNH3026INS
BECMG 2408/2409 09006KT 9999 SKC QNH3022INS TX10/2315Z TN02/2406Z



MET'MAP, your aeronautical weather chart ! - Copyright ORBIFLY December 2007 - Disclaimer

ORBIFLY MET'MAP TEAM :

Programming & Development : Alexandra Zaïnal
Concept & original design : Baudouin d'Aumeries
Assistance for programming : Marc-Olivier Méhu
Technical & hardware support : Manuel Goepfert

Contact : metmap@orbifly.com




SOURCES & CREDITS :

   NOAA